sensor_id;sensor_type;location;lat;lon;timestamp;pressure;altitude;pressure_sealevel;temperature;humidity
70841;BME280;58465;51.534;9.934;2023-07-24T00:02:05;98976.53;;;22.50;57.24
70841;BME280;58465;51.534;9.934;2023-07-24T00:04:31;98970.38;;;22.48;57.11
70841;BME280;58465;51.534;9.934;2023-07-24T00:06:56;98969.66;;;22.46;57.26
70841;BME280;58465;51.534;9.934;2023-07-24T00:09:21;98961.50;;;22.46;56.90
70841;BME280;58465;51.534;9.934;2023-07-24T00:11:46;98954.19;;;22.46;56.99
70841;BME280;58465;51.534;9.934;2023-07-24T00:14:12;98957.78;;;22.47;56.82
70841;BME280;58465;51.534;9.934;2023-07-24T00:16:37;98957.03;;;22.45;57.13
70841;BME280;58465;51.534;9.934;2023-07-24T00:19:02;98952.47;;;22.45;57.02
70841;BME280;58465;51.534;9.934;2023-07-24T00:21:27;98962.50;;;22.45;57.04
70841;BME280;58465;51.534;9.934;2023-07-24T00:23:55;98970.66;;;22.45;57.04
70841;BME280;58465;51.534;9.934;2023-07-24T00:26:20;98957.19;;;22.43;57.14
70841;BME280;58465;51.534;9.934;2023-07-24T00:28:45;98966.47;;;22.41;57.37
70841;BME280;58465;51.534;9.934;2023-07-24T00:31:10;98954.72;;;22.40;56.93
70841;BME280;58465;51.534;9.934;2023-07-24T00:33:36;98956.44;;;22.41;56.84
70841;BME280;58465;51.534;9.934;2023-07-24T00:36:01;98960.03;;;22.42;56.79
70841;BME280;58465;51.534;9.934;2023-07-24T00:38:26;98964.72;;;22.40;57.14
70841;BME280;58465;51.534;9.934;2023-07-24T00:40:51;98956.44;;;22.41;56.84
70841;BME280;58465;51.534;9.934;2023-07-24T00:43:16;98957.59;;;22.39;56.93
70841;BME280;58465;51.534;9.934;2023-07-24T00:45:42;98962.19;;;22.38;56.84
70841;BME280;58465;51.534;9.934;2023-07-24T00:48:07;98960.31;;;22.39;56.89
70841;BME280;58465;51.534;9.934;2023-07-24T00:50:32;98949.56;;;22.37;56.80
70841;BME280;58465;51.534;9.934;2023-07-24T00:52:58;98952.41;;;22.36;56.57
70841;BME280;58465;51.534;9.934;2023-07-24T00:55:23;98950.69;;;22.35;56.60
70841;BME280;58465;51.534;9.934;2023-07-24T00:57:49;98943.53;;;22.34;56.88
70841;BME280;58465;51.534;9.934;2023-07-24T01:00:14;98944.53;;;22.33;56.74
70841;BME280;58465;51.534;9.934;2023-07-24T01:02:40;98947.53;;;22.30;56.99
70841;BME280;58465;51.534;9.934;2023-07-24T01:05:05;98943.78;;;22.31;56.94
70841;BME280;58465;51.534;9.934;2023-07-24T01:07:31;98947.53;;;22.30;56.79
70841;BME280;58465;51.534;9.934;2023-07-24T01:09:56;98943.09;;;22.29;56.76
70841;BME280;58465;51.534;9.934;2023-07-24T01:12:31;98946.78;;;22.28;56.78
70841;BME280;58465;51.534;9.934;2023-07-24T01:15:02;98936.91;;;22.27;56.84
70841;BME280;58465;51.534;9.934;2023-07-24T01:17:28;98935.06;;;22.27;56.92
70841;BME280;58465;51.534;9.934;2023-07-24T01:19:56;98938.75;;;22.26;56.98
70841;BME280;58465;51.534;9.934;2023-07-24T01:25:10;98941.63;;;22.25;56.93
70841;BME280;58465;51.534;9.934;2023-07-24T01:27:44;98948.91;;;22.24;56.59
70841;BME280;58465;51.534;9.934;2023-07-24T01:30:16;98949.03;;;22.23;56.94
70841;BME280;58465;51.534;9.934;2023-07-24T01:32:41;98948.06;;;22.24;56.75
70841;BME280;58465;51.534;9.934;2023-07-24T01:35:06;98948.91;;;22.24;56.68
70841;BME280;58465;51.534;9.934;2023-07-24T01:37:32;98957.50;;;22.19;56.88
70841;BME280;58465;51.534;9.934;2023-07-24T01:39:58;98950.03;;;22.21;56.70
70841;BME280;58465;51.534;9.934;2023-07-24T01:42:24;98948.06;;;22.24;56.70
70841;BME280;58465;51.534;9.934;2023-07-24T01:44:51;98955.34;;;22.23;56.62
70841;BME280;58465;51.534;9.934;2023-07-24T01:47:16;98948.19;;;22.22;56.73
70841;BME280;58465;51.534;9.934;2023-07-24T01:49:41;98950.19;;;22.20;56.78
70841;BME280;58465;51.534;9.934;2023-07-24T01:52:06;98947.59;;;22.18;57.10
70841;BME280;58465;51.534;9.934;2023-07-24T01:54:31;98952.06;;;22.19;56.83
70841;BME280;58465;51.534;9.934;2023-07-24T01:56:56;98953.75;;;22.20;56.62
70841;BME280;58465;51.534;9.934;2023-07-24T01:59:22;98946.63;;;22.19;56.63
70841;BME280;58465;51.534;9.934;2023-07-24T02:01:47;98938.44;;;22.19;56.85
70841;BME280;58465;51.534;9.934;2023-07-24T02:04:12;98942.03;;;22.20;56.51
70841;BME280;58465;51.534;9.934;2023-07-24T02:06:37;98942.03;;;22.20;56.81
70841;BME280;58465;51.534;9.934;2023-07-24T02:09:02;98932.28;;;22.17;56.87
70841;BME280;58465;51.534;9.934;2023-07-24T02:11:27;98936.00;;;22.16;57.01
70841;BME280;58465;51.534;9.934;2023-07-24T02:13:53;98930.81;;;22.13;57.42
70841;BME280;58465;51.534;9.934;2023-07-24T02:16:18;98933.53;;;22.13;57.21
70841;BME280;58465;51.534;9.934;2023-07-24T02:18:43;98929.69;;;22.16;56.87
70841;BME280;58465;51.534;9.934;2023-07-24T02:21:08;98924.25;;;22.16;56.61
70841;BME280;58465;51.534;9.934;2023-07-24T02:23:34;98920.41;;;22.18;56.74
70841;BME280;58465;51.534;9.934;2023-07-24T02:25:59;98916.34;;;22.13;56.97
70841;BME280;58465;51.534;9.934;2023-07-24T02:28:25;98912.19;;;22.09;57.07
70841;BME280;58465;51.534;9.934;2023-07-24T02:30:50;98908.19;;;22.13;57.03
70841;BME280;58465;51.534;9.934;2023-07-24T02:33:17;98911.03;;;22.11;57.16
70841;BME280;58465;51.534;9.934;2023-07-24T02:35:42;98918.94;;;22.14;56.97
70841;BME280;58465;51.534;9.934;2023-07-24T02:38:07;98919.81;;;22.15;56.80
70841;BME280;58465;51.534;9.934;2023-07-24T02:40:33;98917.09;;;22.15;57.12
70841;BME280;58465;51.534;9.934;2023-07-24T02:42:58;98917.09;;;22.15;57.16
70841;BME280;58465;51.534;9.934;2023-07-24T02:45:23;98909.91;;;22.14;56.59
70841;BME280;58465;51.534;9.934;2023-07-24T02:47:48;98914.25;;;22.16;56.75
70841;BME280;58465;51.534;9.934;2023-07-24T02:50:13;98904.22;;;22.17;56.67
70841;BME280;58465;51.534;9.934;2023-07-24T02:52:39;98901.25;;;22.20;56.57
70841;BME280;58465;51.534;9.934;2023-07-24T02:55:04;98901.38;;;22.18;56.29
70841;BME280;58465;51.534;9.934;2023-07-24T02:57:29;98905.94;;;22.18;56.32
70841;BME280;58465;51.534;9.934;2023-07-24T02:59:54;98900.63;;;22.16;56.44
70841;BME280;58465;51.534;9.934;2023-07-24T03:02:19;98902.22;;;22.19;56.26
70841;BME280;58465;51.534;9.934;2023-07-24T03:04:45;98900.78;;;22.15;56.88
70841;BME280;58465;51.534;9.934;2023-07-24T03:07:10;98901.63;;;22.15;56.25
70841;BME280;58465;51.534;9.934;2023-07-24T03:09:35;98898.91;;;22.15;56.51
70841;BME280;58465;51.534;9.934;2023-07-24T03:12:00;98900.50;;;22.18;56.48
70841;BME280;58465;51.534;9.934;2023-07-24T03:14:25;98901.50;;;22.17;56.51
70841;BME280;58465;51.534;9.934;2023-07-24T03:16:51;98897.78;;;22.18;56.38
70841;BME280;58465;51.534;9.934;2023-07-24T03:19:16;98900.63;;;22.16;56.41
70841;BME280;58465;51.534;9.934;2023-07-24T03:21:42;98897.91;;;22.16;56.36
70841;BME280;58465;51.534;9.934;2023-07-24T03:24:07;98900.63;;;22.16;56.26
70841;BME280;58465;51.534;9.934;2023-07-24T03:26:33;98905.94;;;22.18;56.24
70841;BME280;58465;51.534;9.934;2023-07-24T03:28:58;98901.38;;;22.18;56.37
70841;BME280;58465;51.534;9.934;2023-07-24T03:31:23;98892.34;;;22.18;55.92
70841;BME280;58465;51.534;9.934;2023-07-24T03:33:48;98895.94;;;22.18;56.08
70841;BME280;58465;51.534;9.934;2023-07-24T03:36:14;98893.22;;;22.18;56.14
70841;BME280;58465;51.534;9.934;2023-07-24T03:38:39;98887.03;;;22.16;56.20
70841;BME280;58465;51.534;9.934;2023-07-24T03:41:04;98884.31;;;22.16;56.22
70841;BME280;58465;51.534;9.934;2023-07-24T03:43:29;98879.75;;;22.17;56.22
70841;BME280;58465;51.534;9.934;2023-07-24T03:45:55;98878.88;;;22.16;56.10
70841;BME280;58465;51.534;9.934;2023-07-24T03:48:20;98876.28;;;22.15;56.30
70841;BME280;58465;51.534;9.934;2023-07-24T03:50:45;98867.88;;;22.18;56.14
70841;BME280;58465;51.534;9.934;2023-07-24T03:53:10;98871.31;;;22.20;56.02
70841;BME280;58465;51.534;9.934;2023-07-24T03:55:35;98865.03;;;22.19;56.19
70841;BME280;58465;51.534;9.934;2023-07-24T03:58:00;98860.44;;;22.20;55.95
70841;BME280;58465;51.534;9.934;2023-07-24T04:00:26;98866.47;;;22.24;55.85
70841;BME280;58465;51.534;9.934;2023-07-24T04:02:51;98861.16;;;22.22;56.20
70841;BME280;58465;51.534;9.934;2023-07-24T04:05:16;98866.47;;;22.24;55.86
70841;BME280;58465;51.534;9.934;2023-07-24T04:07:41;98861.16;;;22.22;56.13
70841;BME280;58465;51.534;9.934;2023-07-24T04:10:07;98859.28;;;22.23;56.13
70841;BME280;58465;51.534;9.934;2023-07-24T04:12:32;98846.69;;;22.21;56.16
70841;BME280;58465;51.534;9.934;2023-07-24T04:14:57;98848.41;;;22.23;55.87
70841;BME280;58465;51.534;9.934;2023-07-24T04:17:22;98848.41;;;22.23;55.97
70841;BME280;58465;51.534;9.934;2023-07-24T04:19:47;98841.97;;;22.24;55.96
70841;BME280;58465;51.534;9.934;2023-07-24T04:22:13;98846.41;;;22.25;56.02
70841;BME280;58465;51.534;9.934;2023-07-24T04:24:38;98842.97;;;22.23;55.99
70841;BME280;58465;51.534;9.934;2023-07-24T04:27:03;98851.88;;;22.25;55.99
70841;BME280;58465;51.534;9.934;2023-07-24T04:29:29;98855.88;;;22.30;55.87
70841;BME280;58465;51.534;9.934;2023-07-24T04:31:54;98853.03;;;22.32;55.88
70841;BME280;58465;51.534;9.934;2023-07-24T04:34:19;98848.44;;;22.32;55.63
70841;BME280;58465;51.534;9.934;2023-07-24T04:36:44;98838.72;;;22.30;55.71
70841;BME280;58465;51.534;9.934;2023-07-24T04:39:09;98841.28;;;22.31;55.76
70841;BME280;58465;51.534;9.934;2023-07-24T04:41:35;98828.41;;;22.33;55.67
70841;BME280;58465;51.534;9.934;2023-07-24T04:44:00;98823.84;;;22.34;55.44
70841;BME280;58465;51.534;9.934;2023-07-24T04:46:25;98807.66;;;22.32;55.61
70841;BME280;58465;51.534;9.934;2023-07-24T04:48:50;98805.78;;;22.33;55.68
70841;BME280;58465;51.534;9.934;2023-07-24T04:51:15;98822.25;;;22.31;55.78
70841;BME280;58465;51.534;9.934;2023-07-24T04:53:40;98820.13;;;22.35;55.68
70841;BME280;58465;51.534;9.934;2023-07-24T04:56:05;98815.28;;;22.38;55.49
70841;BME280;58465;51.534;9.934;2023-07-24T04:58:31;98810.25;;;22.43;55.23
70841;BME280;58465;51.534;9.934;2023-07-24T05:00:56;98809.28;;;22.44;55.26
70841;BME280;58465;51.534;9.934;2023-07-24T05:03:21;98808.53;;;22.42;55.48
70841;BME280;58465;51.534;9.934;2023-07-24T05:05:55;98805.56;;;22.45;55.17
70841;BME280;58465;51.534;9.934;2023-07-24T05:08:21;98809.88;;;22.48;55.23
70841;BME280;58465;51.534;9.934;2023-07-24T05:10:46;98806.16;;;22.49;55.11
70841;BME280;58465;51.534;9.934;2023-07-24T05:13:12;98797.81;;;22.50;55.32
70841;BME280;58465;51.534;9.934;2023-07-24T05:15:37;98797.25;;;22.47;55.07
70841;BME280;58465;51.534;9.934;2023-07-24T05:18:02;98800.69;;;22.49;55.10
70841;BME280;58465;51.534;9.934;2023-07-24T05:20:27;98803.25;;;22.50;55.30
70841;BME280;58465;51.534;9.934;2023-07-24T05:22:52;98794.69;;;22.55;56.04
70841;BME280;58465;51.534;9.934;2023-07-24T05:25:18;98786.53;;;22.55;55.84
70841;BME280;58465;51.534;9.934;2023-07-24T05:27:43;98779.94;;;22.57;55.22
70841;BME280;58465;51.534;9.934;2023-07-24T05:30:08;98787.25;;;22.57;54.99
70841;BME280;58465;51.534;9.934;2023-07-24T05:32:33;98788.41;;;22.64;54.92
70841;BME280;58465;51.534;9.934;2023-07-24T05:34:58;98790.69;;;22.69;55.14
70841;BME280;58465;51.534;9.934;2023-07-24T05:37:24;98792.28;;;22.71;55.32
70841;BME280;58465;51.534;9.934;2023-07-24T05:39:49;98783.72;;;22.76;55.10
70841;BME280;58465;51.534;9.934;2023-07-24T05:42:14;98790.19;;;22.84;54.98
70841;BME280;58465;51.534;9.934;2023-07-24T05:44:39;98798.06;;;22.87;54.79
70841;BME280;58465;51.534;9.934;2023-07-24T05:47:04;98789.91;;;22.97;55.05
70841;BME280;58465;51.534;9.934;2023-07-24T05:49:29;98788.75;;;23.00;55.14
70841;BME280;58465;51.534;9.934;2023-07-24T05:51:55;98784.16;;;23.00;55.14
70841;BME280;58465;51.534;9.934;2023-07-24T05:54:21;98786.03;;;23.00;55.47
70841;BME280;58465;51.534;9.934;2023-07-24T05:56:46;98771.69;;;22.98;55.41
70841;BME280;58465;51.534;9.934;2023-07-24T05:59:11;98762.81;;;22.96;55.51
70841;BME280;58465;51.534;9.934;2023-07-24T06:01:37;98757.66;;;22.92;55.56
70841;BME280;58465;51.534;9.934;2023-07-24T06:04:02;98765.41;;;22.87;55.86
70841;BME280;58465;51.534;9.934;2023-07-24T06:06:27;98763.09;;;22.92;55.19
70841;BME280;58465;51.534;9.934;2023-07-24T06:08:53;98761.50;;;23.00;55.32
70841;BME280;58465;51.534;9.934;2023-07-24T06:11:18;98763.97;;;23.03;55.18
70841;BME280;58465;51.534;9.934;2023-07-24T06:13:43;98750.94;;;23.06;55.20
70841;BME280;58465;51.534;9.934;2023-07-24T06:16:08;98756.63;;;23.13;54.66
70841;BME280;58465;51.534;9.934;2023-07-24T06:18:34;98756.19;;;23.17;54.50
70841;BME280;58465;51.534;9.934;2023-07-24T06:20:59;98770.53;;;23.10;54.94
70841;BME280;58465;51.534;9.934;2023-07-24T06:23:24;98782.28;;;23.10;54.54
70841;BME280;58465;51.534;9.934;2023-07-24T06:25:49;98777.56;;;23.12;54.37
70841;BME280;58465;51.534;9.934;2023-07-24T06:28:16;98780.16;;;23.14;54.36
70841;BME280;58465;51.534;9.934;2023-07-24T06:30:41;98779.00;;;23.16;54.30
70841;BME280;58465;51.534;9.934;2023-07-24T06:33:07;98767.94;;;23.08;54.49
70841;BME280;58465;51.534;9.934;2023-07-24T06:35:32;98770.84;;;23.07;54.42
70841;BME280;58465;51.534;9.934;2023-07-24T06:37:57;98762.69;;;23.07;54.71
70841;BME280;58465;51.534;9.934;2023-07-24T06:40:22;98761.22;;;23.03;54.84
70841;BME280;58465;51.534;9.934;2023-07-24T06:42:47;98744.16;;;23.10;54.72
70841;BME280;58465;51.534;9.934;2023-07-24T06:45:13;98757.16;;;23.55;53.61
70841;BME280;58465;51.534;9.934;2023-07-24T06:47:38;98743.97;;;23.97;52.05
70841;BME280;58465;51.534;9.934;2023-07-24T06:50:03;98746.94;;;24.40;51.01
70841;BME280;58465;51.534;9.934;2023-07-24T06:52:29;98741.41;;;24.13;51.04
70841;BME280;58465;51.534;9.934;2023-07-24T06:54:54;98730.69;;;23.75;52.56
70841;BME280;58465;51.534;9.934;2023-07-24T06:57:20;98731.59;;;23.65;52.50
70841;BME280;58465;51.534;9.934;2023-07-24T06:59:45;98731.31;;;23.68;52.67
70841;BME280;58465;51.534;9.934;2023-07-24T07:02:10;98729.72;;;23.66;52.72
70841;BME280;58465;51.534;9.934;2023-07-24T07:04:35;98715.44;;;23.54;52.87
70841;BME280;58465;51.534;9.934;2023-07-24T07:07:00;98712.72;;;23.54;52.89
70841;BME280;58465;51.534;9.934;2023-07-24T07:09:25;98715.00;;;23.49;53.03
70841;BME280;58465;51.534;9.934;2023-07-24T07:11:51;98727.50;;;23.42;53.40
70841;BME280;58465;51.534;9.934;2023-07-24T07:14:16;98713.72;;;23.44;53.23
70841;BME280;58465;51.534;9.934;2023-07-24T07:16:41;98714.16;;;23.39;53.44
70841;BME280;58465;51.534;9.934;2023-07-24T07:19:06;98703.53;;;23.36;53.68
70841;BME280;58465;51.534;9.934;2023-07-24T07:21:34;98699.09;;;23.54;52.59
70841;BME280;58465;51.534;9.934;2023-07-24T07:23:59;98693.72;;;23.72;52.24
70841;BME280;58465;51.534;9.934;2023-07-24T07:26:24;98696.13;;;23.75;52.10
70841;BME280;58465;51.534;9.934;2023-07-24T07:28:50;98687.50;;;23.80;51.89
70841;BME280;58465;51.534;9.934;2023-07-24T07:31:15;98681.63;;;23.75;52.30
70841;BME280;58465;51.534;9.934;2023-07-24T07:33:40;98685.88;;;23.87;51.89
70841;BME280;58465;51.534;9.934;2023-07-24T07:36:06;98679.03;;;23.83;51.81
70841;BME280;58465;51.534;9.934;2023-07-24T07:38:31;98681.91;;;23.81;52.35
70841;BME280;58465;51.534;9.934;2023-07-24T07:40:56;98671.91;;;23.72;52.09
70841;BME280;58465;51.534;9.934;2023-07-24T07:43:22;98678.41;;;23.89;52.03
70841;BME280;58465;51.534;9.934;2023-07-24T07:45:47;98675.53;;;23.90;51.85
70841;BME280;58465;51.534;9.934;2023-07-24T07:48:12;98671.38;;;23.86;52.09
70841;BME280;58465;51.534;9.934;2023-07-24T07:50:37;98666.88;;;23.95;51.65
70841;BME280;58465;51.534;9.934;2023-07-24T07:53:03;98660.44;;;23.96;51.45
70841;BME280;58465;51.534;9.934;2023-07-24T07:55:28;98672.28;;;24.04;51.12
70841;BME280;58465;51.534;9.934;2023-07-24T07:57:53;98658.34;;;24.08;51.24
70841;BME280;58465;51.534;9.934;2023-07-24T08:00:18;98667.19;;;24.19;50.63
70841;BME280;58465;51.534;9.934;2023-07-24T08:02:43;98686.00;;;24.13;50.69
70841;BME280;58465;51.534;9.934;2023-07-24T08:05:09;98681.34;;;23.78;51.88
70841;BME280;58465;51.534;9.934;2023-07-24T08:07:34;98690.38;;;23.78;51.69
70841;BME280;58465;51.534;9.934;2023-07-24T08:10:00;98693.09;;;23.78;51.47
70841;BME280;58465;51.534;9.934;2023-07-24T08:12:25;98694.09;;;24.04;50.68
70841;BME280;58465;51.534;9.934;2023-07-24T08:14:50;98697.06;;;23.84;51.30
70841;BME280;58465;51.534;9.934;2023-07-24T08:17:16;98693.41;;;24.02;51.16
70841;BME280;58465;51.534;9.934;2023-07-24T08:19:41;98696.91;;;24.22;50.06
70841;BME280;58465;51.534;9.934;2023-07-24T08:22:06;98713.81;;;23.98;50.91
70841;BME280;58465;51.534;9.934;2023-07-24T08:24:35;98707.53;;;23.88;51.32
70841;BME280;58465;51.534;9.934;2023-07-24T08:27:00;98700.72;;;23.75;51.73
70841;BME280;58465;51.534;9.934;2023-07-24T08:29:25;98702.84;;;23.81;51.39
70841;BME280;58465;51.534;9.934;2023-07-24T08:31:51;98695.81;;;23.78;51.37
70841;BME280;58465;51.534;9.934;2023-07-24T08:34:16;98707.69;;;23.87;50.93
70841;BME280;58465;51.534;9.934;2023-07-24T08:36:41;98703.81;;;23.89;50.80
70841;BME280;58465;51.534;9.934;2023-07-24T08:39:06;98716.59;;;23.89;50.89
70841;BME280;58465;51.534;9.934;2023-07-24T08:41:31;98709.50;;;23.96;50.52
70841;BME280;58465;51.534;9.934;2023-07-24T08:43:59;98712.81;;;23.99;50.08
70841;BME280;58465;51.534;9.934;2023-07-24T08:46:24;98706.69;;;23.88;50.59
70841;BME280;58465;51.534;9.934;2023-07-24T08:48:50;98700.78;;;23.92;50.16
70841;BME280;58465;51.534;9.934;2023-07-24T08:51:17;98695.28;;;24.02;49.96
70841;BME280;58465;51.534;9.934;2023-07-24T08:53:43;98699.50;;;24.14;49.82
70841;BME280;58465;51.534;9.934;2023-07-24T08:56:09;98693.44;;;24.20;49.57
70841;BME280;58465;51.534;9.934;2023-07-24T08:58:35;98703.25;;;24.13;49.57
70841;BME280;58465;51.534;9.934;2023-07-24T09:01:01;98702.28;;;24.32;49.07
70841;BME280;58465;51.534;9.934;2023-07-24T09:03:26;98691.78;;;24.37;48.85
70841;BME280;58465;51.534;9.934;2023-07-24T09:05:53;98708.00;;;24.38;49.04
70841;BME280;58465;51.534;9.934;2023-07-24T09:08:31;98697.25;;;24.37;49.10
70841;BME280;58465;51.534;9.934;2023-07-24T09:10:57;98681.09;;;24.44;49.00
70841;BME280;58465;51.534;9.934;2023-07-24T09:13:22;98688.84;;;24.48;48.79
70841;BME280;58465;51.534;9.934;2023-07-24T09:15:47;98685.16;;;24.75;47.83
70841;BME280;58465;51.534;9.934;2023-07-24T09:18:13;98680.88;;;24.72;48.07
70841;BME280;58465;51.534;9.934;2023-07-24T09:20:39;98681.59;;;24.57;48.79
70841;BME280;58465;51.534;9.934;2023-07-24T09:23:05;98684.31;;;24.57;48.56
70841;BME280;58465;51.534;9.934;2023-07-24T09:25:31;98676.28;;;24.37;49.17
70841;BME280;58465;51.534;9.934;2023-07-24T09:27:59;98680.00;;;24.36;49.29
70841;BME280;58465;51.534;9.934;2023-07-24T09:30:25;98673.69;;;24.36;49.48
70841;BME280;58465;51.534;9.934;2023-07-24T09:32:53;98676.50;;;24.62;48.73
70841;BME280;58465;51.534;9.934;2023-07-24T09:35:19;98664.50;;;24.37;48.97
70841;BME280;58465;51.534;9.934;2023-07-24T09:37:45;98656.53;;;24.26;49.41
70841;BME280;58465;51.534;9.934;2023-07-24T09:40:10;98651.06;;;24.26;49.59
70841;BME280;58465;51.534;9.934;2023-07-24T09:42:36;98648.28;;;24.35;49.71
70841;BME280;58465;51.534;9.934;2023-07-24T09:45:02;98653.44;;;24.38;49.41
70841;BME280;58465;51.534;9.934;2023-07-24T09:47:28;98655.06;;;24.31;49.71
70841;BME280;58465;51.534;9.934;2023-07-24T09:49:53;98646.47;;;24.26;49.74
70841;BME280;58465;51.534;9.934;2023-07-24T09:52:19;98651.63;;;24.29;49.51
70841;BME280;58465;51.534;9.934;2023-07-24T09:54:49;98651.13;;;24.16;50.12
70841;BME280;58465;51.534;9.934;2023-07-24T09:57:17;98653.97;;;24.42;49.35
70841;BME280;58465;51.534;9.934;2023-07-24T09:59:43;98655.00;;;24.59;49.06
70841;BME280;58465;51.534;9.934;2023-07-24T10:02:10;98647.34;;;24.62;48.80
70841;BME280;58465;51.534;9.934;2023-07-24T10:04:36;98649.06;;;24.46;49.15
70841;BME280;58465;51.534;9.934;2023-07-24T10:07:03;98644.16;;;24.49;48.97
70841;BME280;58465;51.534;9.934;2023-07-24T10:09:29;98638.78;;;24.39;49.20
70841;BME280;58465;51.534;9.934;2023-07-24T10:11:54;98633.13;;;24.23;49.73
70841;BME280;58465;51.534;9.934;2023-07-24T10:14:19;98624.81;;;24.25;49.54
70841;BME280;58465;51.534;9.934;2023-07-24T10:16:45;98627.28;;;24.18;49.44
70841;BME280;58465;51.534;9.934;2023-07-24T10:19:14;98630.81;;;24.28;49.24
70841;BME280;58465;51.534;9.934;2023-07-24T10:21:44;98618.25;;;24.35;48.96
70841;BME280;58465;51.534;9.934;2023-07-24T10:24:09;98614.22;;;24.39;49.14
70841;BME280;58465;51.534;9.934;2023-07-24T10:26:34;98618.50;;;24.60;48.35
70841;BME280;58465;51.534;9.934;2023-07-24T10:29:00;98605.25;;;24.47;48.44
70841;BME280;58465;51.534;9.934;2023-07-24T10:31:25;98600.66;;;24.48;48.63
70841;BME280;58465;51.534;9.934;2023-07-24T10:33:52;98599.56;;;24.40;48.71
70841;BME280;58465;51.534;9.934;2023-07-24T10:36:18;98605.00;;;24.58;48.30
70841;BME280;58465;51.534;9.934;2023-07-24T10:38:44;98600.88;;;24.80;47.76
70841;BME280;58465;51.534;9.934;2023-07-24T10:41:10;98600.78;;;24.64;47.98
70841;BME280;58465;51.534;9.934;2023-07-24T10:43:51;98597.91;;;24.48;48.51
70841;BME280;58465;51.534;9.934;2023-07-24T10:46:17;98590.97;;;24.35;48.91
70841;BME280;58465;51.534;9.934;2023-07-24T10:48:44;98591.19;;;24.42;48.74
70841;BME280;58465;51.534;9.934;2023-07-24T10:51:10;98597.78;;;24.31;48.69
70841;BME280;58465;51.534;9.934;2023-07-24T10:53:36;98601.94;;;24.08;49.60
70841;BME280;58465;51.534;9.934;2023-07-24T10:56:02;98601.53;;;24.03;49.57
70841;BME280;58465;51.534;9.934;2023-07-24T10:58:29;98607.84;;;24.03;49.48
70841;BME280;58465;51.534;9.934;2023-07-24T11:00:55;98605.31;;;24.20;49.20
70841;BME280;58465;51.534;9.934;2023-07-24T11:03:21;98604.63;;;24.35;48.82
70841;BME280;58465;51.534;9.934;2023-07-24T11:05:47;98602.88;;;24.70;47.94
70841;BME280;58465;51.534;9.934;2023-07-24T11:08:13;98614.06;;;24.59;48.19
70841;BME280;58465;51.534;9.934;2023-07-24T11:10:51;98608.91;;;24.38;48.65
70841;BME280;58465;51.534;9.934;2023-07-24T11:13:19;98605.97;;;24.31;48.79
70841;BME280;58465;51.534;9.934;2023-07-24T11:15:45;98614.75;;;24.43;48.73
70841;BME280;58465;51.534;9.934;2023-07-24T11:18:11;98614.91;;;24.59;48.17
70841;BME280;58465;51.534;9.934;2023-07-24T11:20:44;98607.81;;;24.66;47.74
70841;BME280;58465;51.534;9.934;2023-07-24T11:23:11;98607.66;;;24.68;47.92
70841;BME280;58465;51.534;9.934;2023-07-24T11:25:37;98604.66;;;24.61;48.19
70841;BME280;58465;51.534;9.934;2023-07-24T11:28:04;98608.19;;;24.54;48.28
70841;BME280;58465;51.534;9.934;2023-07-24T11:30:29;98597.03;;;24.65;48.33
70841;BME280;58465;51.534;9.934;2023-07-24T11:32:54;98591.97;;;24.70;48.15
70841;BME280;58465;51.534;9.934;2023-07-24T11:35:21;98591.22;;;24.86;47.67
70841;BME280;58465;51.534;9.934;2023-07-24T11:37:46;98591.34;;;25.02;47.18
70841;BME280;58465;51.534;9.934;2023-07-24T11:40:12;98584.06;;;25.10;47.31
70841;BME280;58465;51.534;9.934;2023-07-24T11:42:40;98577.13;;;25.16;46.92
70841;BME280;58465;51.534;9.934;2023-07-24T11:45:05;98573.28;;;24.83;47.88
70841;BME280;58465;51.534;9.934;2023-07-24T11:47:31;98575.50;;;25.05;47.50
70841;BME280;58465;51.534;9.934;2023-07-24T11:49:57;98572.34;;;24.92;47.74
70841;BME280;58465;51.534;9.934;2023-07-24T11:52:22;98566.94;;;25.00;47.39
70841;BME280;58465;51.534;9.934;2023-07-24T11:54:55;98561.00;;;25.05;47.17
70841;BME280;58465;51.534;9.934;2023-07-24T11:57:22;98558.63;;;25.44;46.50
70841;BME280;58465;51.534;9.934;2023-07-24T11:59:47;98544.84;;;25.54;46.25
70841;BME280;58465;51.534;9.934;2023-07-24T12:02:13;98552.72;;;25.23;46.85
70841;BME280;58465;51.534;9.934;2023-07-24T12:04:38;98536.41;;;25.05;47.43
70841;BME280;58465;51.534;9.934;2023-07-24T12:07:09;98532.44;;;24.99;47.38
70841;BME280;58465;51.534;9.934;2023-07-24T12:09:34;98524.47;;;25.06;47.27
70841;BME280;58465;51.534;9.934;2023-07-24T12:11:59;98524.69;;;25.21;46.95
70841;BME280;58465;51.534;9.934;2023-07-24T12:14:25;98499.47;;;25.27;46.56
70841;BME280;58465;51.534;9.934;2023-07-24T12:16:59;98500.50;;;25.26;46.65
70841;BME280;58465;51.534;9.934;2023-07-24T12:19:25;98508.81;;;25.16;47.08
70841;BME280;58465;51.534;9.934;2023-07-24T12:21:50;98514.38;;;25.48;46.19
70841;BME280;58465;51.534;9.934;2023-07-24T12:24:15;98510.06;;;25.38;46.32
70841;BME280;58465;51.534;9.934;2023-07-24T12:26:40;98509.75;;;25.41;46.33
70841;BME280;58465;51.534;9.934;2023-07-24T12:29:05;98506.91;;;25.59;45.88
70841;BME280;58465;51.534;9.934;2023-07-24T12:31:31;98508.72;;;25.92;44.86
70841;BME280;58465;51.534;9.934;2023-07-24T12:33:56;98498.50;;;26.02;44.65
70841;BME280;58465;51.534;9.934;2023-07-24T12:36:21;98492.31;;;26.24;44.01
70841;BME280;58465;51.534;9.934;2023-07-24T12:38:46;98495.38;;;25.73;44.92
70841;BME280;58465;51.534;9.934;2023-07-24T12:41:13;98495.19;;;25.66;45.11
70841;BME280;58465;51.534;9.934;2023-07-24T12:43:38;98490.59;;;25.99;44.51
70841;BME280;58465;51.534;9.934;2023-07-24T12:46:03;98480.69;;;25.98;44.50
70841;BME280;58465;51.534;9.934;2023-07-24T12:48:29;98473.66;;;25.71;45.10
70841;BME280;58465;51.534;9.934;2023-07-24T12:50:56;98467.16;;;25.80;44.92
70841;BME280;58465;51.534;9.934;2023-07-24T12:53:22;98461.56;;;26.47;43.36
70841;BME280;58465;51.534;9.934;2023-07-24T12:55:48;98458.28;;;26.43;43.10